Time;durP1;ratioP1;P1;durP2;ratioP2;P2;SDS_P1;SDS_P2;PMS_P1;PMS_P2;Temp;Humidity;BMP_temperature;BMP_pressure;BME280_temperature;BME280_humidity;BME280_pressure;Samples;Min_cycle;Max_cycle;Signal;HPM_P1;HPM_P2
2021/04/09 00:02:27;;;;;;;11.80;7.40;;;5.60;77.20;;;;;;5011507;28;20046;-61
2021/04/09 00:04:52;;;;;;;9.43;6.57;;;5.70;76.60;;;;;;5011313;28;20030;-61
2021/04/09 00:07:18;;;;;;;10.30;6.15;;;5.60;76.80;;;;;;4992577;28;20534;-61
2021/04/09 00:09:44;;;;;;;12.48;6.25;;;5.60;77.00;;;;;;4993329;28;20144;-62
2021/04/09 00:12:10;;;;;;;13.60;6.93;;;5.60;77.00;;;;;;4993223;28;20120;-62
2021/04/09 00:14:36;;;;;;;11.82;6.15;;;5.60;77.30;;;;;;4993396;28;20026;-61
2021/04/09 00:17:01;;;;;;;11.10;6.40;;;5.50;77.00;;;;;;4992580;28;20360;-60
2021/04/09 00:19:27;;;;;;;12.00;6.57;;;5.60;77.00;;;;;;4992998;28;20033;-61
2021/04/09 00:21:54;;;;;;;10.10;6.38;;;5.50;77.10;;;;;;5010736;28;20558;-61
2021/04/09 00:24:20;;;;;;;11.65;6.45;;;5.50;78.00;;;;;;4992423;28;20431;-63
2021/04/09 00:26:45;;;;;;;13.20;7.18;;;5.50;78.40;;;;;;4992994;28;20057;-61
2021/04/09 00:29:11;;;;;;;10.38;6.80;;;5.50;78.50;;;;;;5010099;28;20030;-61
2021/04/09 00:31:37;;;;;;;13.05;7.38;;;5.60;78.60;;;;;;5010251;28;20110;-62
2021/04/09 00:34:04;;;;;;;12.60;6.63;;;5.60;78.40;;;;;;4976147;28;20084;-63
2021/04/09 00:36:32;;;;;;;14.82;6.47;;;5.50;78.60;;;;;;5010517;28;20026;-62
2021/04/09 00:38:58;;;;;;;12.68;7.20;;;5.50;78.70;;;;;;5010625;28;20038;-61
2021/04/09 00:41:23;;;;;;;15.85;7.20;;;5.40;79.20;;;;;;5009352;28;20060;-61
2021/04/09 00:43:49;;;;;;;17.10;8.90;;;5.30;79.40;;;;;;5010332;28;20053;-62
2021/04/09 00:46:15;;;;;;;13.95;7.55;;;5.30;79.90;;;;;;4992238;28;20507;-62
2021/04/09 00:48:40;;;;;;;11.10;7.70;;;5.40;83.80;;;;;;4992572;28;20204;-62
2021/04/09 00:51:07;;;;;;;15.60;6.32;;;5.30;81.40;;;;;;4992019;28;20091;-63
2021/04/09 00:53:33;;;;;;;15.18;7.53;;;5.10;80.90;;;;;;4992495;28;20125;-62
2021/04/09 00:56:04;;;;;;;9.35;6.47;;;5.20;80.90;;;;;;5010267;28;20048;-62
2021/04/09 00:58:30;;;;;;;12.70;7.38;;;5.30;80.30;;;;;;4992228;28;20060;-62
2021/04/09 01:00:56;;;;;;;9.85;6.95;;;5.30;80.70;;;;;;5010232;28;20029;-62
2021/04/09 01:03:22;;;;;;;14.80;7.82;;;5.10;81.00;;;;;;4991882;28;20259;-62
2021/04/09 01:05:51;;;;;;;15.68;7.75;;;5.10;81.50;;;;;;5009836;28;20394;-62
2021/04/09 01:08:16;;;;;;;19.90;7.80;;;5.10;81.70;;;;;;5009343;28;20116;-62
2021/04/09 01:10:42;;;;;;;10.90;7.10;;;5.10;82.00;;;;;;4992199;28;20169;-61
2021/04/09 01:13:07;;;;;;;8.90;6.60;;;5.00;82.30;;;;;;5009235;28;20049;-61
2021/04/09 01:15:39;;;;;;;13.77;7.88;;;5.00;82.90;;;;;;4992040;28;20080;-61
2021/04/09 01:18:12;;;;;;;11.40;7.25;;;5.00;83.20;;;;;;4980985;28;20034;-62
2021/04/09 01:20:42;;;;;;;12.13;7.35;;;4.90;83.50;;;;;;4972262;28;20093;-62
2021/04/09 01:23:34;;;;;;;15.20;7.55;;;4.90;83.80;;;;;;4989362;28;20460;-62
2021/04/09 01:26:09;;;;;;;16.25;6.75;;;4.90;84.30;;;;;;4972639;28;20034;-62
2021/04/09 01:29:06;;;;;;;15.10;7.10;;;4.90;84.10;;;;;;4990049;28;20019;-62
2021/04/09 01:31:57;;;;;;;13.75;7.82;;;4.90;84.20;;;;;;4990308;28;20058;-62
2021/04/09 01:34:25;;;;;;;12.85;7.63;;;4.90;84.80;;;;;;4989544;28;20436;-66
2021/04/09 01:36:55;;;;;;;11.52;6.90;;;4.90;84.90;;;;;;4991802;28;20031;-62
2021/04/09 01:39:27;;;;;;;12.02;7.00;;;4.90;85.20;;;;;;4978017;28;20492;-62
2021/04/09 01:41:54;;;;;;;14.82;8.70;;;4.90;85.60;;;;;;4978763;28;20131;-61
2021/04/09 01:44:24;;;;;;;10.27;7.25;;;4.90;85.40;;;;;;4996247;28;20112;-61
2021/04/09 01:46:53;;;;;;;14.23;8.57;;;4.90;86.10;;;;;;4978772;28;20049;-61
2021/04/09 01:49:20;;;;;;;13.82;8.43;;;4.80;86.30;;;;;;4978086;28;20116;-61
2021/04/09 01:51:48;;;;;;;13.15;7.50;;;4.80;86.30;;;;;;4996589;28;20129;-61
2021/04/09 01:54:15;;;;;;;12.20;7.53;;;4.70;87.20;;;;;;4995780;28;20065;-61
2021/04/09 01:56:44;;;;;;;10.95;7.30;;;4.50;87.80;;;;;;4978735;28;20026;-61
2021/04/09 01:59:12;;;;;;;13.35;8.10;;;4.60;88.30;;;;;;4996036;28;20026;-59
2021/04/09 02:01:39;;;;;;;11.93;7.50;;;4.60;88.20;;;;;;4978876;28;20062;-64
2021/04/09 02:04:06;;;;;;;16.52;7.57;;;4.60;88.60;;;;;;4996194;28;20026;-62
2021/04/09 02:06:34;;;;;;;10.48;7.32;;;4.50;89.30;;;;;;4996165;28;20105;-61
2021/04/09 02:09:01;;;;;;;12.07;7.28;;;4.30;89.90;;;;;;4996100;28;20462;-62
2021/04/09 02:11:27;;;;;;;13.25;7.93;;;4.40;90.10;;;;;;4995645;28;20377;-61
2021/04/09 02:13:55;;;;;;;14.20;7.90;;;4.40;90.20;;;;;;4978604;28;20114;-60
2021/04/09 02:16:22;;;;;;;10.02;6.97;;;4.30;90.50;;;;;;4977933;28;20076;-62
2021/04/09 02:18:49;;;;;;;14.73;7.78;;;4.30;90.60;;;;;;4995876;28;20150;-62
2021/04/09 02:21:15;;;;;;;11.38;7.57;;;4.40;90.70;;;;;;4977547;28;20085;-62
2021/04/09 02:23:40;;;;;;;10.13;7.60;;;4.40;90.80;;;;;;4995999;28;20041;-61
2021/04/09 02:26:07;;;;;;;13.88;7.93;;;4.40;90.90;;;;;;4978380;28;20085;-61
2021/04/09 02:28:34;;;;;;;12.05;7.50;;;4.40;90.90;;;;;;4995749;28;20020;-61
2021/04/09 02:31:06;;;;;;;9.75;7.75;;;4.30;91.00;;;;;;4995666;28;20037;-61
2021/04/09 02:33:35;;;;;;;12.70;8.00;;;4.40;91.30;;;;;;4995496;28;20022;-62
2021/04/09 02:36:21;;;;;;;15.18;8.68;;;4.40;91.10;;;;;;4978498;28;20096;-62
2021/04/09 02:38:53;;;;;;;13.27;7.63;;;4.20;91.50;;;;;;4996158;28;20022;-61
2021/04/09 02:41:21;;;;;;;12.02;7.35;;;4.30;91.50;;;;;;4995092;28;20108;-61
2021/04/09 02:43:47;;;;;;;16.50;8.18;;;4.20;91.90;;;;;;4995984;28;20137;-61
2021/04/09 02:46:27;;;;;;;12.65;7.57;;;4.10;92.00;;;;;;4995499;28;20026;-62
2021/04/09 02:49:00;;;;;;;12.27;7.07;;;4.10;92.20;;;;;;4993071;28;20030;-62
2021/04/09 02:51:27;;;;;;;14.68;6.85;;;4.10;92.40;;;;;;4974785;28;20037;-62
2021/04/09 02:53:58;;;;;;;13.32;7.18;;;4.20;92.20;;;;;;4992825;28;20022;-62
2021/04/09 02:56:26;;;;;;;14.45;7.78;;;4.20;92.40;;;;;;4992510;28;20018;-61
2021/04/09 02:58:53;;;;;;;11.65;6.72;;;4.20;92.40;;;;;;4992786;28;20128;-62
2021/04/09 03:01:23;;;;;;;11.23;7.18;;;4.30;92.40;;;;;;4974235;28;20026;-62
2021/04/09 03:03:51;;;;;;;12.13;7.22;;;4.20;92.60;;;;;;4992579;28;20183;-62
2021/04/09 03:06:20;;;;;;;10.98;7.07;;;4.30;92.50;;;;;;4974124;28;20121;-62
2021/04/09 03:08:47;;;;;;;11.02;7.80;;;4.30;92.50;;;;;;4992505;28;20105;-62
2021/04/09 03:11:13;;;;;;;12.82;7.50;;;4.30;92.50;;;;;;4974230;28;20058;-62
2021/04/09 03:13:39;;;;;;;14.40;7.70;;;4.30;92.50;;;;;;4992131;28;20450;-62
2021/04/09 03:16:07;;;;;;;12.77;7.25;;;4.20;92.50;;;;;;4992430;28;20049;-62
2021/04/09 03:18:38;;;;;;;14.65;7.90;;;4.20;92.50;;;;;;4993760;28;20033;-61
2021/04/09 03:21:04;;;;;;;12.07;6.75;;;4.20;92.40;;;;;;5010879;28;20026;-62
2021/04/09 03:23:30;;;;;;;11.75;7.05;;;4.10;92.90;;;;;;5010890;28;20034;-62
2021/04/09 03:25:55;;;;;;;12.70;8.05;;;4.00;93.20;;;;;;4993901;28;20083;-61
2021/04/09 03:28:21;;;;;;;13.20;8.45;;;3.90;93.30;;;;;;4993247;28;20207;-61
2021/04/09 03:30:50;;;;;;;16.38;7.32;;;3.90;93.60;;;;;;5011695;28;20034;-62
2021/04/09 03:33:19;;;;;;;12.48;8.15;;;3.90;93.80;;;;;;4993068;28;20026;-61
2021/04/09 03:35:46;;;;;;;15.82;9.55;;;3.90;93.90;;;;;;4993380;28;20125;-61
2021/04/09 03:38:13;;;;;;;15.23;9.07;;;3.80;94.20;;;;;;5011052;28;20116;-62
2021/04/09 03:40:39;;;;;;;11.75;7.75;;;3.90;94.20;;;;;;4993525;28;20033;-61
2021/04/09 03:43:05;;;;;;;14.77;7.93;;;3.80;94.40;;;;;;4993236;28;20050;-62
2021/04/09 03:45:31;;;;;;;10.43;7.60;;;3.70;94.80;;;;;;4993009;28;20083;-62
2021/04/09 03:47:56;;;;;;;12.27;8.13;;;3.70;95.00;;;;;;4993452;28;20433;-62
2021/04/09 03:50:22;;;;;;;10.15;7.07;;;3.70;95.00;;;;;;5010362;28;20048;-62
2021/04/09 03:52:48;;;;;;;13.93;8.35;;;3.80;94.90;;;;;;5011159;28;20427;-62
2021/04/09 03:55:14;;;;;;;10.07;6.70;;;3.70;95.20;;;;;;4992573;28;20022;-62
2021/04/09 03:57:39;;;;;;;13.90;7.55;;;3.50;95.80;;;;;;4993204;28;20045;-62
2021/04/09 04:00:06;;;;;;;15.98;6.95;;;3.60;95.60;;;;;;4992855;28;20045;-61
2021/04/09 04:02:32;;;;;;;13.38;7.13;;;3.50;96.00;;;;;;5010435;28;20125;-62
2021/04/09 04:04:58;;;;;;;15.52;7.68;;;3.60;96.00;;;;;;4993257;28;20030;-62
2021/04/09 04:07:23;;;;;;;16.40;8.40;;;3.50;97.10;;;;;;5010454;28;20092;-62
2021/04/09 04:09:49;;;;;;;13.05;7.00;;;3.40;97.20;;;;;;4993243;28;20026;-63
2021/04/09 04:12:15;;;;;;;13.90;7.53;;;3.40;97.60;;;;;;4992592;28;20026;-63
2021/04/09 04:14:41;;;;;;;18.13;9.57;;;3.30;98.10;;;;;;5010595;28;20516;-65
2021/04/09 04:17:06;;;;;;;13.82;7.75;;;3.30;98.30;;;;;;5010787;28;20439;-62
2021/04/09 04:19:32;;;;;;;12.57;7.15;;;3.30;98.20;;;;;;5010359;28;20096;-62
2021/04/09 04:21:57;;;;;;;13.48;7.75;;;3.40;98.00;;;;;;4992899;28;20046;-63
2021/04/09 04:24:23;;;;;;;14.30;7.63;;;3.30;98.10;;;;;;5010155;28;20037;-63
2021/04/09 04:26:49;;;;;;;17.00;7.93;;;3.30;98.20;;;;;;5010677;28;20462;-62
2021/04/09 04:29:15;;;;;;;12.65;7.28;;;3.30;98.30;;;;;;5010245;28;20114;-62
2021/04/09 04:31:41;;;;;;;13.57;8.65;;;3.40;97.90;;;;;;5010605;28;20057;-62
2021/04/09 04:34:07;;;;;;;20.70;8.40;;;3.40;97.90;;;;;;5010428;28;20026;-62
2021/04/09 04:36:32;;;;;;;12.55;7.80;;;3.30;98.10;;;;;;5010048;28;20088;-62
2021/04/09 04:38:58;;;;;;;13.55;7.38;;;3.40;98.10;;;;;;5010655;28;20033;-62
2021/04/09 04:41:24;;;;;;;11.15;7.32;;;3.40;98.10;;;;;;4991828;28;20050;-62
2021/04/09 04:43:49;;;;;;;16.80;7.60;;;3.30;98.10;;;;;;5010837;28;20440;-62
2021/04/09 04:46:15;;;;;;;14.93;8.07;;;3.30;98.20;;;;;;5008041;28;20145;-62
2021/04/09 04:48:41;;;;;;;12.63;6.85;;;3.30;98.00;;;;;;5009315;28;20030;-61
2021/04/09 04:51:06;;;;;;;18.42;8.20;;;3.40;98.00;;;;;;5008956;28;20065;-62
2021/04/09 04:53:32;;;;;;;20.65;8.20;;;3.40;97.80;;;;;;4990987;28;20060;-61
2021/04/09 04:55:58;;;;;;;13.52;7.55;;;3.50;97.80;;;;;;5009765;28;20026;-63
2021/04/09 04:58:24;;;;;;;18.60;8.77;;;3.50;97.80;;;;;;4991209;28;20408;-63
2021/04/09 05:00:50;;;;;;;15.02;8.50;;;3.50;97.90;;;;;;4992323;28;20034;-62
2021/04/09 05:03:15;;;;;;;15.02;7.60;;;3.50;97.90;;;;;;4991461;28;20041;-62
2021/04/09 05:05:41;;;;;;;15.88;7.82;;;3.50;97.70;;;;;;4990994;28;20026;-62
2021/04/09 05:08:07;;;;;;;14.52;7.78;;;3.50;97.60;;;;;;5008889;28;20080;-62
2021/04/09 05:10:33;;;;;;;12.68;7.68;;;3.50;97.40;;;;;;4990353;28;20029;-62
2021/04/09 05:12:58;;;;;;;12.88;7.95;;;3.50;97.50;;;;;;5009071;28;20072;-63
2021/04/09 05:15:24;;;;;;;21.08;7.55;;;3.50;97.30;;;;;;4990777;28;20444;-62
2021/04/09 05:17:49;;;;;;;20.70;7.47;;;3.60;97.20;;;;;;5009130;28;20076;-63
2021/04/09 05:20:15;;;;;;;14.75;7.47;;;3.60;97.00;;;;;;5008935;28;20411;-62
2021/04/09 05:22:41;;;;;;;21.13;9.45;;;3.70;97.00;;;;;;4990752;28;20520;-62
2021/04/09 05:25:08;;;;;;;15.63;7.30;;;3.60;96.90;;;;;;5007642;28;20025;-62
2021/04/09 05:27:33;;;;;;;13.88;7.30;;;3.70;96.60;;;;;;4990921;28;20415;-63
2021/04/09 05:30:00;;;;;;;17.50;8.07;;;3.80;96.00;;;;;;5009498;28;20036;-62
2021/04/09 05:32:26;;;;;;;12.90;7.72;;;3.80;96.20;;;;;;4990781;28;20033;-62
2021/04/09 05:34:52;;;;;;;17.90;7.72;;;3.80;96.00;;;;;;5009873;28;20022;-62
2021/04/09 05:37:17;;;;;;;22.80;9.45;;;3.90;96.00;;;;;;4991658;28;20038;-61
2021/04/09 05:39:43;;;;;;;20.65;8.48;;;3.80;96.30;;;;;;5009084;28;20060;-62
2021/04/09 05:42:09;;;;;;;26.27;9.75;;;4.00;96.20;;;;;;4991297;28;20061;-62
2021/04/09 05:44:36;;;;;;;17.45;8.25;;;4.00;96.20;;;;;;5008175;28;20415;-63
2021/04/09 05:47:03;;;;;;;19.30;8.38;;;4.00;96.20;;;;;;5009714;28;20026;-62
2021/04/09 05:49:29;;;;;;;19.65;8.40;;;4.00;96.20;;;;;;4990555;28;20227;-62
2021/04/09 05:51:55;;;;;;;30.33;9.88;;;3.90;96.50;;;;;;4991228;28;20180;-62
2021/04/09 05:54:22;;;;;;;24.67;9.10;;;3.80;96.70;;;;;;4990889;28;20030;-63
2021/04/09 05:56:48;;;;;;;19.17;8.40;;;3.80;96.80;;;;;;4991134;28;20038;-62
2021/04/09 05:59:14;;;;;;;25.25;9.07;;;3.90;96.60;;;;;;4991085;28;20030;-62
2021/04/09 06:01:40;;;;;;;25.67;8.35;;;4.00;96.50;;;;;;4990613;28;20268;-62
2021/04/09 06:04:06;;;;;;;14.85;8.38;;;3.90;96.20;;;;;;4991808;28;20120;-64
2021/04/09 06:06:32;;;;;;;13.68;7.72;;;4.00;96.20;;;;;;5008382;28;20038;-62
2021/04/09 06:08:58;;;;;;;13.10;7.53;;;4.00;95.70;;;;;;4991518;28;20026;-62
2021/04/09 06:11:23;;;;;;;10.77;6.28;;;4.20;95.30;;;;;;5008238;28;20048;-63
2021/04/09 06:13:51;;;;;;;12.65;6.60;;;4.10;94.90;;;;;;5009066;28;20431;-62
2021/04/09 06:16:18;;;;;;;14.82;8.13;;;4.20;95.10;;;;;;5009265;28;20026;-74
2021/04/09 06:18:43;;;;;;;16.60;7.80;;;4.30;94.80;;;;;;4990344;28;20036;-62
2021/04/09 06:21:09;;;;;;;14.88;8.15;;;4.60;94.50;;;;;;5008146;28;20208;-63
2021/04/09 06:23:36;;;;;;;12.90;7.30;;;4.60;94.10;;;;;;4978413;28;20069;-68
2021/04/09 06:26:02;;;;;;;14.68;7.82;;;6.30;99.90;;;;;;4983821;28;20460;-63
2021/04/09 06:28:28;;;;;;;16.50;6.68;;;5.60;94.60;;;;;;4994291;28;20108;-60
2021/04/09 06:30:53;;;;;;;16.42;7.30;;;5.40;94.20;;;;;;4994097;28;20121;-61
2021/04/09 06:33:19;;;;;;;12.73;8.13;;;5.20;94.20;;;;;;4981013;28;20180;-62
2021/04/09 06:35:45;;;;;;;14.32;8.18;;;5.20;93.80;;;;;;4976200;28;20145;-63
2021/04/09 06:38:11;;;;;;;12.10;7.85;;;5.20;93.70;;;;;;4974422;28;20019;-63
2021/04/09 06:40:40;;;;;;;10.82;6.65;;;5.10;93.90;;;;;;4973579;28;20133;-62
2021/04/09 06:43:05;;;;;;;11.98;7.03;;;5.00;94.40;;;;;;4974572;28;20042;-62
2021/04/09 06:45:31;;;;;;;14.77;7.45;;;5.00;94.00;;;;;;4973840;28;20126;-62
2021/04/09 06:47:57;;;;;;;9.35;7.20;;;5.10;93.90;;;;;;4974333;28;20412;-61
2021/04/09 06:50:25;;;;;;;14.63;7.45;;;5.40;93.80;;;;;;4991089;28;20027;-64
2021/04/09 06:52:56;;;;;;;14.45;7.10;;;5.60;92.90;;;;;;4991500;28;20033;-63
2021/04/09 06:55:23;;;;;;;12.23;8.07;;;5.80;92.50;;;;;;4991462;28;20031;-63
2021/04/09 06:57:52;;;;;;;11.73;6.97;;;6.00;92.00;;;;;;4973807;28;20054;-65
2021/04/09 07:00:20;;;;;;;11.85;6.72;;;6.20;91.50;;;;;;4973934;28;20057;-62
2021/04/09 07:02:46;;;;;;;12.65;7.22;;;6.20;91.80;;;;;;4991094;28;20018;-62
2021/04/09 07:05:13;;;;;;;12.70;7.88;;;6.30;91.40;;;;;;4991405;28;20393;-62
2021/04/09 07:07:39;;;;;;;12.70;7.07;;;6.50;91.10;;;;;;4990823;28;20038;-62
2021/04/09 07:10:06;;;;;;;16.73;7.00;;;6.50;90.70;;;;;;4990982;28;20031;-62
2021/04/09 07:12:34;;;;;;;13.73;7.85;;;6.60;90.30;;;;;;4990392;28;20042;-62
2021/04/09 07:15:24;;;;;;;12.45;7.85;;;6.70;90.40;;;;;;4974032;28;20030;-62
2021/04/09 07:17:50;;;;;;;14.57;6.80;;;6.80;89.90;;;;;;4973457;28;20045;-62
2021/04/09 07:20:21;;;;;;;13.30;7.13;;;6.70;89.60;;;;;;4991131;28;20030;-62
2021/04/09 07:22:58;;;;;;;14.60;6.85;;;6.60;90.10;;;;;;4990377;28;20054;-62
2021/04/09 07:25:45;;;;;;;19.20;7.38;;;6.60;89.50;;;;;;4973330;28;20410;-64
2021/04/09 07:28:16;;;;;;;11.63;6.80;;;6.90;90.00;;;;;;4973583;28;20027;-63
2021/04/09 07:30:54;;;;;;;11.63;6.75;;;6.80;89.30;;;;;;4990494;28;20210;-62
2021/04/09 07:33:21;;;;;;;16.55;7.65;;;7.10;88.40;;;;;;4973126;28;20041;-61
2021/04/09 07:35:53;;;;;;;9.07;6.65;;;7.20;88.20;;;;;;4971686;28;20023;-62
2021/04/09 07:38:28;;;;;;;26.50;8.30;;;7.20;87.90;;;;;;4991179;28;20030;-62
2021/04/09 07:41:03;;;;;;;13.18;6.65;;;7.50;87.20;;;;;;4973351;28;20041;-61
2021/04/09 07:43:31;;;;;;;9.10;6.78;;;7.70;86.00;;;;;;4990124;28;20038;-62
2021/04/09 07:45:59;;;;;;;15.98;8.15;;;7.80;84.60;;;;;;4973277;28;20030;-62
2021/04/09 07:48:30;;;;;;;14.13;6.47;;;7.80;85.10;;;;;;4972356;28;20022;-63
2021/04/09 07:50:57;;;;;;;11.82;6.03;;;7.90;83.80;;;;;;4991015;28;20037;-62
2021/04/09 07:53:29;;;;;;;10.70;6.90;;;8.00;84.00;;;;;;4956800;28;20120;-62
2021/04/09 07:56:09;;;;;;;12.43;7.00;;;8.10;84.30;;;;;;4973191;28;20440;-61
2021/04/09 07:58:36;;;;;;;13.55;6.68;;;8.40;81.80;;;;;;4956628;28;20302;-62
2021/04/09 08:01:04;;;;;;;16.35;6.75;;;8.70;81.20;;;;;;4990482;28;20109;-62
2021/04/09 08:03:35;;;;;;;9.82;6.55;;;8.80;79.90;;;;;;4972194;28;20042;-62
2021/04/09 08:06:12;;;;;;;10.45;6.72;;;9.10;78.90;;;;;;4990513;28;20452;-62
2021/04/09 08:08:54;;;;;;;12.25;6.03;;;9.50;77.50;;;;;;4971991;28;20125;-62
2021/04/09 08:11:27;;;;;;;13.40;6.05;;;9.20;77.20;;;;;;4990275;28;20417;-68
2021/04/09 08:14:04;;;;;;;15.80;7.57;;;9.50;77.40;;;;;;4973553;28;20133;-65
2021/04/09 08:16:36;;;;;;;15.50;8.18;;;9.50;76.20;;;;;;4972288;28;20033;-63
2021/04/09 08:19:07;;;;;;;11.63;6.95;;;9.20;75.50;;;;;;4972890;28;20049;-63
2021/04/09 08:21:39;;;;;;;17.17;7.32;;;9.20;75.20;;;;;;4971367;28;20129;-62
2021/04/09 08:24:07;;;;;;;16.77;6.88;;;9.20;76.20;;;;;;4972699;28;20449;-62
2021/04/09 08:26:34;;;;;;;10.98;7.30;;;9.00;76.20;;;;;;4971381;28;20034;-62
2021/04/09 08:29:00;;;;;;;12.45;7.00;;;9.20;75.90;;;;;;4990216;28;20049;-63
2021/04/09 08:31:27;;;;;;;9.38;6.32;;;9.40;74.50;;;;;;4971434;28;20030;-62
2021/04/09 08:33:53;;;;;;;15.30;8.43;;;9.80;74.10;;;;;;4972394;28;20144;-62
2021/04/09 08:36:19;;;;;;;104.47;15.10;;;10.10;73.40;;;;;;4972339;28;20086;-62
2021/04/09 08:38:45;;;;;;;10.38;6.70;;;10.40;71.30;;;;;;4971511;28;20058;-63
2021/04/09 08:41:12;;;;;;;11.38;6.53;;;10.60;71.10;;;;;;4989809;28;20058;-63
2021/04/09 08:43:38;;;;;;;11.63;7.72;;;10.50;70.90;;;;;;4971726;28;20157;-63
2021/04/09 08:46:06;;;;;;;8.75;6.63;;;10.60;70.90;;;;;;4989322;28;20057;-63
2021/04/09 08:48:33;;;;;;;9.18;6.90;;;11.20;69.30;;;;;;4988902;28;20105;-63
2021/04/09 08:50:59;;;;;;;9.90;6.90;;;;;;;;;;4972024;28;20038;-62
2021/04/09 08:53:27;;;;;;;12.18;6.90;;;12.00;66.00;;;;;;4971669;28;20069;-63
2021/04/09 08:55:53;;;;;;;16.88;6.75;;;12.20;65.50;;;;;;4972398;28;20062;-63
2021/04/09 08:58:19;;;;;;;10.85;6.45;;;12.20;64.00;;;;;;4971960;28;20026;-63
2021/04/09 09:00:48;;;;;;;17.63;7.55;;;11.90;62.90;;;;;;4971317;28;20030;-62
2021/04/09 09:03:30;;;;;;;15.18;5.95;;;12.00;63.50;;;;;;4972151;28;20480;-61
2021/04/09 09:06:01;;;;;;;14.45;6.40;;;11.90;62.30;;;;;;4971618;28;20049;-63
2021/04/09 09:08:48;;;;;;;15.77;6.28;;;12.30;62.10;;;;;;4973586;28;20103;-64
2021/04/09 09:11:35;;;;;;;12.77;6.72;;;12.90;62.70;;;;;;4991149;28;20532;-62
2021/04/09 09:14:00;;;;;;;10.40;5.55;;;13.40;59.60;;;;;;5008705;28;20022;-63
2021/04/09 09:16:36;;;;;;;12.00;6.20;;;13.30;59.20;;;;;;5008570;28;20119;-63
2021/04/09 09:19:02;;;;;;;14.38;7.57;;;13.50;58.50;;;;;;5008905;28;20072;-63
2021/04/09 09:21:34;;;;;;;15.57;6.65;;;13.70;57.90;;;;;;4990357;28;20387;-63
2021/04/09 09:24:16;;;;;;;14.05;6.38;;;14.00;57.20;;;;;;4991004;28;20034;-64
2021/04/09 09:26:43;;;;;;;;;;;14.10;56.40;;;;;;5008791;28;20094;-62
2021/04/09 09:29:22;;;;;;;10.55;5.57;;;14.50;56.10;;;;;;5008579;28;19935;-63
2021/04/09 09:31:56;;;;;;;13.77;6.13;;;14.70;55.30;;;;;;4990671;28;20041;-64
2021/04/09 09:34:24;;;;;;;10.68;5.50;;;15.20;54.60;;;;;;4984752;28;20117;-65
2021/04/09 09:37:11;;;;;;;12.18;4.80;;;15.50;53.60;;;;;;5006124;28;20527;-72
2021/04/09 09:39:51;;;;;;;9.75;5.85;;;16.40;54.50;;;;;;4986230;28;20038;-63
2021/04/09 09:42:26;;;;;;;16.52;8.43;;;16.60;51.20;;;;;;4994612;28;20119;-62
2021/04/09 09:45:06;;;;;;;7.00;5.53;;;15.90;51.50;;;;;;4972105;28;20138;-63
2021/04/09 09:47:37;;;;;;;13.80;6.85;;;16.40;51.10;;;;;;4971603;28;20026;-62
2021/04/09 09:50:11;;;;;;;11.10;5.22;;;16.30;50.10;;;;;;4972051;28;20483;-63
2021/04/09 09:52:53;;;;;;;12.98;6.13;;;16.50;50.00;;;;;;4971312;28;20104;-62
2021/04/09 09:55:38;;;;;;;11.60;6.28;;;16.60;50.50;;;;;;4972419;28;20112;-62
2021/04/09 09:58:09;;;;;;;8.68;5.70;;;17.00;49.10;;;;;;4973563;28;20031;-62
2021/04/09 10:00:39;;;;;;;18.40;5.78;;;16.90;48.30;;;;;;4975021;28;20435;-64
2021/04/09 10:03:19;;;;;;;8.07;5.45;;;16.80;48.80;;;;;;4993378;28;20423;-63
2021/04/09 10:05:57;;;;;;;12.07;6.72;;;17.30;49.00;;;;;;4992589;28;20170;-62
2021/04/09 10:08:24;;;;;;;9.45;5.32;;;17.50;48.50;;;;;;4975390;28;20117;-64
2021/04/09 10:11:02;;;;;;;11.43;6.35;;;17.10;47.70;;;;;;4975622;28;20034;-63
2021/04/09 10:13:38;;;;;;;9.13;5.57;;;16.60;48.60;;;;;;4974598;28;20037;-63
2021/04/09 10:16:14;;;;;;;10.38;6.13;;;16.80;47.90;;;;;;4993079;28;20034;-62
2021/04/09 10:18:48;;;;;;;14.15;6.35;;;16.60;47.10;;;;;;4974529;28;20030;-62
2021/04/09 10:21:15;;;;;;;11.35;5.75;;;16.00;48.80;;;;;;4975253;28;20425;-64
2021/04/09 10:23:41;;;;;;;10.00;4.90;;;16.40;49.10;;;;;;4974281;28;20583;-63
2021/04/09 10:26:08;;;;;;;10.40;7.45;;;16.40;48.40;;;;;;4975111;28;20034;-63
2021/04/09 10:28:37;;;;;;;10.82;5.75;;;15.70;50.00;;;;;;4974617;28;20053;-62
2021/04/09 10:31:23;;;;;;;14.15;7.15;;;15.50;49.60;;;;;;4959468;28;20045;-61
2021/04/09 10:33:51;;;;;;;11.52;5.05;;;15.80;50.30;;;;;;4974491;28;20476;-63
2021/04/09 10:36:26;;;;;;;16.55;6.05;;;16.00;48.50;;;;;;4975165;28;20504;-63
2021/04/09 10:39:09;;;;;;;12.68;5.22;;;15.90;48.30;;;;;;4992230;28;20178;-62
2021/04/09 10:41:45;;;;;;;10.18;5.30;;;16.40;48.00;;;;;;4973835;28;20065;-64
2021/04/09 10:44:16;;;;;;;7.93;5.50;;;16.60;48.80;;;;;;4993086;28;20509;-63
2021/04/09 10:47:02;;;;;;;9.48;5.70;;;17.00;48.30;;;;;;4974390;28;20030;-63
2021/04/09 10:49:33;;;;;;;10.95;5.18;;;16.60;48.50;;;;;;4992183;28;20491;-65
2021/04/09 10:52:04;;;;;;;10.93;5.20;;;17.30;48.70;;;;;;4975439;28;20172;-63
2021/04/09 10:54:31;;;;;;;10.43;4.88;;;17.70;47.70;;;;;;4974130;28;20034;-63
2021/04/09 10:57:03;;;;;;;8.93;5.95;;;17.40;46.40;;;;;;4992180;28;20048;-63
2021/04/09 10:59:29;;;;;;;10.00;5.40;;;17.10;47.70;;;;;;4973667;28;20154;-65
2021/04/09 11:01:56;;;;;;;15.32;8.18;;;17.00;47.10;;;;;;4974053;28;20097;-63
2021/04/09 11:04:23;;;;;;;9.00;5.20;;;16.70;48.10;;;;;;4975334;28;20089;-62
2021/04/09 11:07:19;;;;;;;8.35;5.07;;;17.00;47.10;;;;;;4973869;28;20026;-63
2021/04/09 11:09:49;;;;;;;7.97;4.72;;;16.80;46.70;;;;;;4964345;28;20046;-61
2021/04/09 11:12:15;;;;;;;8.30;6.20;;;17.10;46.20;;;;;;4974832;28;20106;-62
2021/04/09 11:14:41;;;;;;;10.80;4.75;;;17.00;47.10;;;;;;4973715;28;20480;-63
2021/04/09 11:17:07;;;;;;;7.97;4.78;;;17.10;45.70;;;;;;4974711;28;20538;-62
2021/04/09 11:19:36;;;;;;;9.18;4.50;;;17.00;45.30;;;;;;4974235;28;20057;-63
2021/04/09 11:22:05;;;;;;;6.80;4.68;;;16.80;45.40;;;;;;4974839;28;20387;-63
2021/04/09 11:24:35;;;;;;;11.32;6.38;;;16.80;45.50;;;;;;4974194;28;20031;-64
2021/04/09 11:27:21;;;;;;;8.45;4.07;;;16.80;45.70;;;;;;4974942;28;20023;-62
2021/04/09 11:29:48;;;;;;;12.00;4.90;;;16.60;44.90;;;;;;4973832;28;20150;-62
2021/04/09 11:32:19;;;;;;;15.88;8.27;;;16.40;46.90;;;;;;4992321;28;20026;-63
2021/04/09 11:34:48;;;;;;;11.43;5.53;;;16.80;46.50;;;;;;4973843;28;20037;-62
2021/04/09 11:37:15;;;;;;;10.18;4.57;;;17.00;46.20;;;;;;4974303;28;20130;-61
2021/04/09 11:39:55;;;;;;;14.43;5.88;;;17.20;45.10;;;;;;4991853;28;20104;-64
2021/04/09 11:42:35;;;;;;;12.20;4.65;;;17.50;44.40;;;;;;4971334;28;20098;-63
2021/04/09 11:45:11;;;;;;;10.00;3.58;;;17.30;44.50;;;;;;4984947;28;20127;-64
2021/04/09 11:47:42;;;;;;;7.10;4.20;;;17.30;44.20;;;;;;4987271;28;20134;-63
2021/04/09 11:50:17;;;;;;;11.27;4.87;;;17.10;44.70;;;;;;4978787;28;20080;-63
2021/04/09 11:53:04;;;;;;;9.73;4.78;;;16.70;45.70;;;;;;4971794;28;20294;-62
2021/04/09 11:55:40;;;;;;;12.00;4.82;;;16.60;46.70;;;;;;4969799;28;20476;-63
2021/04/09 11:58:29;;;;;;;8.20;5.72;;;16.30;46.50;;;;;;4971576;28;20397;-62
2021/04/09 12:01:03;;;;;;;13.40;6.30;;;17.00;45.70;;;;;;4969728;28;20118;-63
2021/04/09 12:03:45;;;;;;;6.13;3.60;;;17.20;45.90;;;;;;4971698;28;20035;-69
2021/04/09 12:06:16;;;;;;;9.90;4.40;;;17.80;50.40;;;;;;4971781;28;20043;-70
2021/04/09 12:08:43;;;;;;;12.30;4.95;;;18.00;46.50;;;;;;4969257;28;20046;-70
2021/04/09 12:11:09;;;;;;;14.13;4.75;;;17.70;47.80;;;;;;4969990;28;20547;-69
2021/04/09 12:13:37;;;;;;;10.90;5.15;;;17.50;48.10;;;;;;4970534;28;20031;-69
2021/04/09 12:16:05;;;;;;;12.98;5.38;;;17.90;48.10;;;;;;4968978;28;20059;-69
2021/04/09 12:18:31;;;;;;;8.13;6.13;;;17.90;47.60;;;;;;4968855;28;20129;-64
2021/04/09 12:20:57;;;;;;;8.65;5.43;;;18.00;48.10;;;;;;4967612;28;20206;-70
2021/04/09 12:23:23;;;;;;;8.45;4.78;;;17.70;47.90;;;;;;4969902;28;20086;-62
2021/04/09 12:25:48;;;;;;;4.95;3.92;;;17.80;47.90;;;;;;4968426;28;20067;-62
2021/04/09 12:28:14;;;;;;;7.72;5.05;;;18.20;47.80;;;;;;4970800;28;20122;-62
2021/04/09 12:30:40;;;;;;;6.10;5.05;;;18.50;47.20;;;;;;4969026;28;20031;-63
2021/04/09 12:33:06;;;;;;;12.73;5.15;;;18.40;46.60;;;;;;4970009;28;20045;-61
2021/04/09 12:35:32;;;;;;;8.82;5.05;;;17.80;47.50;;;;;;4969759;28;20023;-65
2021/04/09 12:37:58;;;;;;;7.72;4.90;;;17.70;47.40;;;;;;4969261;28;20039;-62
2021/04/09 12:40:24;;;;;;;8.95;4.88;;;17.30;48.70;;;;;;4970740;28;20077;-63
2021/04/09 12:42:49;;;;;;;6.45;4.35;;;17.80;48.10;;;;;;5002181;28;20063;-62
2021/04/09 12:45:16;;;;;;;10.30;4.70;;;17.80;47.30;;;;;;4991932;28;20029;-62
2021/04/09 12:47:42;;;;;;;7.20;4.95;;;17.70;46.80;;;;;;4991135;28;20181;-63
2021/04/09 12:50:08;;;;;;;7.32;5.07;;;17.50;47.90;;;;;;5010358;28;20045;-63
2021/04/09 12:52:34;;;;;;;9.95;4.55;;;17.50;47.10;;;;;;5009230;28;20033;-65
2021/04/09 12:55:00;;;;;;;14.57;5.32;;;17.30;47.30;;;;;;5009618;28;20032;-57
2021/04/09 12:57:26;;;;;;;10.02;4.68;;;16.90;48.00;;;;;;4999763;28;20062;-61